Terminal Aerodrome Forecast
Issued by NWS

Home | Current Version | Previous Version | Text Only | Print | Product List | Glossary On
Versions: 1 2 3 4 5 6 7 8 9 10 11 12 13 14 15 16 17 18 19 20 21 22 23 24 25 26 27 28 29 30 31 32 33 34 35 36 37 38 39 40 41 42 43 44 45 46 47 48
448
FTUS43 KFGF 151747 CCA
TAFTVF
TAF COR
KTVF 151747Z 1518/1618 16007KT P6SM -SN OVC025
      TEMPO 1522/1524 2SM -SN OVC015
     FM160000 11008KT 3SM -SN OVC020
     FM161100 11008KT 3SM -SN OVC010
     FM161500 13006KT P6SM OVC010
     FM161700 19006KT P6SM OVC015=

USA.gov is the U.S. government's official web portal to all federal, state and local government web resources and services.